Time;durP1;ratioP1;P1;durP2;ratioP2;P2;SDS_P1;SDS_P2;PMS_P1;PMS_P2;Temp;Humidity;BMP_temperature;BMP_pressure;BME280_temperature;BME280_humidity;BME280_pressure;Samples;Min_cycle;Max_cycle;Signal;HPM_P1;HPM_P2
2022/08/17 00:00:49;;;;;;;3.83;3.30;;;28.00;36.90;;;;;;5107073;27;45219;-70
2022/08/17 00:03:17;;;;;;;4.20;3.40;;;28.00;37.00;;;;;;5106850;27;46402;-70
2022/08/17 00:05:45;;;;;;;4.05;3.10;;;28.00;37.10;;;;;;5106976;27;45195;-70
2022/08/17 00:08:13;;;;;;;3.72;3.33;;;28.00;37.80;;;;;;5106923;27;45323;-70
2022/08/17 00:10:41;;;;;;;3.42;3.00;;;28.00;37.20;;;;;;5106994;27;45529;-70
2022/08/17 00:13:08;;;;;;;3.97;3.55;;;28.00;37.20;;;;;;5106608;27;46421;-70
2022/08/17 00:15:35;;;;;;;3.65;3.33;;;28.00;37.20;;;;;;5106622;27;45232;-70
2022/08/17 00:18:02;;;;;;;3.40;3.10;;;27.90;37.10;;;;;;5106804;27;45358;-70
2022/08/17 00:20:28;;;;;;;4.85;3.47;;;27.90;37.10;;;;;;5107042;27;45214;-70
2022/08/17 00:23:03;;;;;;;4.72;3.22;;;27.90;37.20;;;;;;5106556;27;46723;-70
2022/08/17 00:25:30;;;;;;;4.57;3.95;;;27.90;37.20;;;;;;5106589;27;45186;-71
2022/08/17 00:27:58;;;;;;;3.60;3.30;;;27.90;37.10;;;;;;5106559;27;45195;-70
2022/08/17 00:30:25;;;;;;;4.10;3.70;;;27.90;37.10;;;;;;5117748;27;45360;-70
2022/08/17 00:32:52;;;;;;;4.20;3.60;;;27.90;37.30;;;;;;5130908;27;45465;-70
2022/08/17 00:35:22;;;;;;;4.68;4.22;;;27.90;37.30;;;;;;5130850;27;45236;-70
2022/08/17 00:37:48;;;;;;;3.97;3.67;;;27.90;37.30;;;;;;5130498;27;45290;-70
2022/08/17 00:40:15;;;;;;;4.35;3.83;;;27.90;37.20;;;;;;5131003;27;45409;-69
2022/08/17 00:42:42;;;;;;;4.70;4.20;;;27.80;37.20;;;;;;5130529;27;47760;-70
2022/08/17 00:45:13;;;;;;;4.28;3.65;;;27.80;37.20;;;;;;5130731;27;45319;-70
2022/08/17 00:47:40;;;;;;;6.57;4.10;;;27.90;37.20;;;;;;5130786;27;45374;-70
2022/08/17 00:50:09;;;;;;;5.57;4.00;;;27.80;37.30;;;;;;5131118;27;45197;-69
2022/08/17 00:52:37;;;;;;;5.00;4.50;;;27.80;37.50;;;;;;5116230;27;45213;-70
2022/08/17 00:55:04;;;;;;;4.97;4.43;;;27.80;37.40;;;;;;5109835;27;45177;-70
2022/08/17 00:57:32;;;;;;;4.72;4.22;;;27.80;37.40;;;;;;5110214;27;45316;-70
2022/08/17 01:00:00;;;;;;;4.80;4.30;;;27.80;37.50;;;;;;5110138;27;45472;-70
2022/08/17 01:02:28;;;;;;;5.90;4.40;;;27.80;37.40;;;;;;5107237;27;46185;-70
2022/08/17 01:04:55;;;;;;;5.30;4.80;;;27.80;37.50;;;;;;5109661;27;45410;-70
2022/08/17 01:07:23;;;;;;;5.25;4.10;;;27.80;37.60;;;;;;5109945;27;45359;-70
2022/08/17 01:09:50;;;;;;;4.80;4.30;;;27.80;37.50;;;;;;5110136;27;45282;-70
2022/08/17 01:12:17;;;;;;;5.10;4.45;;;27.70;37.50;;;;;;5109505;27;45576;-70
2022/08/17 01:14:43;;;;;;;4.60;4.20;;;27.80;37.50;;;;;;5109500;27;45196;-71
2022/08/17 01:17:10;;;;;;;4.70;4.30;;;27.70;37.60;;;;;;5109682;27;45289;-70
2022/08/17 01:19:40;;;;;;;5.68;4.82;;;27.70;37.60;;;;;;5109825;27;45501;-70
2022/08/17 01:22:16;;;;;;;6.35;5.13;;;27.70;37.60;;;;;;5109325;27;45299;-70
2022/08/17 01:24:44;;;;;;;5.20;4.60;;;27.70;37.70;;;;;;5109375;27;45216;-70
2022/08/17 01:27:12;;;;;;;5.10;4.60;;;27.70;37.90;;;;;;5109472;27;45409;-70
2022/08/17 01:29:39;;;;;;;5.03;4.53;;;27.70;38.50;;;;;;5113660;27;45271;-70
2022/08/17 01:32:06;;;;;;;5.18;4.68;;;27.70;38.20;;;;;;5129794;27;45223;-71
2022/08/17 01:34:33;;;;;;;4.90;4.40;;;27.70;38.00;;;;;;5129717;27;45188;-70
2022/08/17 01:37:00;;;;;;;5.97;4.78;;;27.70;38.10;;;;;;5128387;27;45259;-70
2022/08/17 01:39:34;;;;;;;4.65;4.25;;;27.70;38.30;;;;;;5130057;27;45235;-69
2022/08/17 01:42:04;;;;;;;5.45;4.50;;;27.70;38.50;;;;;;5129582;27;46512;-70
2022/08/17 01:44:31;;;;;;;5.32;4.30;;;27.70;39.00;;;;;;5129608;27;45251;-70
2022/08/17 01:46:58;;;;;;;4.93;4.43;;;27.60;39.00;;;;;;5129656;27;45186;-70
2022/08/17 01:49:24;;;;;;;5.15;4.65;;;27.70;39.20;;;;;;5129912;27;45294;-70
2022/08/17 01:51:51;;;;;;;4.50;4.10;;;27.70;39.30;;;;;;5121574;27;46647;-70
2022/08/17 01:54:19;;;;;;;4.15;3.75;;;27.60;39.10;;;;;;5108777;27;45371;-70
2022/08/17 01:56:48;;;;;;;5.63;5.05;;;27.60;39.00;;;;;;5108850;27;45244;-70
2022/08/17 01:59:15;;;;;;;4.88;4.35;;;27.60;39.00;;;;;;5109147;27;45368;-70
2022/08/17 02:01:42;;;;;;;6.30;4.45;;;27.60;39.10;;;;;;5108640;27;46389;-70
2022/08/17 02:04:09;;;;;;;4.63;3.90;;;27.60;39.20;;;;;;5108634;27;45294;-70
2022/08/17 02:06:38;;;;;;;4.50;4.10;;;27.60;40.10;;;;;;5108866;27;45308;-70
2022/08/17 02:09:05;;;;;;;3.90;3.47;;;27.60;39.50;;;;;;5108847;27;45430;-70
2022/08/17 02:11:33;;;;;;;4.53;3.50;;;27.60;40.20;;;;;;5108408;27;46382;-70
2022/08/17 02:14:01;;;;;;;4.20;3.90;;;27.60;39.90;;;;;;5108546;27;45232;-69
2022/08/17 02:16:28;;;;;;;4.32;3.92;;;27.60;39.80;;;;;;5108783;27;45204;-70
2022/08/17 02:18:55;;;;;;;4.88;4.03;;;27.60;39.70;;;;;;5108807;27;45415;-70
2022/08/17 02:21:22;;;;;;;5.15;4.25;;;27.60;39.90;;;;;;5108455;27;46694;-69
2022/08/17 02:23:48;;;;;;;4.65;3.75;;;27.60;39.80;;;;;;5108341;27;45276;-70
2022/08/17 02:26:15;;;;;;;4.78;3.80;;;27.60;39.90;;;;;;5108502;27;45140;-70
2022/08/17 02:28:42;;;;;;;4.15;3.75;;;27.60;40.00;;;;;;5108487;27;45196;-70
2022/08/17 02:31:11;;;;;;;4.93;3.83;;;27.60;40.70;;;;;;5108261;27;47442;-70
2022/08/17 02:33:38;;;;;;;6.13;3.65;;;27.50;40.10;;;;;;5108276;27;45292;-70
2022/08/17 02:36:05;;;;;;;4.57;3.70;;;27.50;40.10;;;;;;5108187;27;45571;-70
2022/08/17 02:38:32;;;;;;;3.85;3.50;;;27.50;40.10;;;;;;5108566;27;45505;-70
2022/08/17 02:40:59;;;;;;;3.90;3.60;;;27.50;40.10;;;;;;5108058;27;46374;-70
2022/08/17 02:43:26;;;;;;;4.15;3.80;;;27.50;40.20;;;;;;5108090;27;45177;-70
2022/08/17 02:45:53;;;;;;;3.90;3.53;;;27.50;40.10;;;;;;5108141;27;45327;-70
2022/08/17 02:48:21;;;;;;;4.38;3.97;;;27.50;40.30;;;;;;5108242;27;45390;-70
2022/08/17 02:50:48;;;;;;;4.45;3.70;;;27.50;40.20;;;;;;5107808;27;45279;-70
2022/08/17 02:53:15;;;;;;;4.07;3.70;;;27.50;40.30;;;;;;5127166;27;45183;-70
2022/08/17 02:55:42;;;;;;;4.30;3.40;;;27.50;40.40;;;;;;5128597;27;45179;-71
2022/08/17 02:58:09;;;;;;;3.28;3.08;;;27.50;40.30;;;;;;5128808;27;45241;-70
2022/08/17 03:00:39;;;;;;;3.97;3.55;;;27.50;40.30;;;;;;5128527;27;46389;-70
2022/08/17 03:03:06;;;;;;;3.83;3.53;;;27.50;40.30;;;;;;5128448;27;45284;-70
2022/08/17 03:05:35;;;;;;;3.80;3.47;;;27.40;40.40;;;;;;5128533;27;45217;-70
2022/08/17 03:08:03;;;;;;;3.42;3.13;;;27.40;40.50;;;;;;5128659;27;45338;-70
2022/08/17 03:10:29;;;;;;;5.22;3.30;;;27.40;40.50;;;;;;5128107;27;46724;-70
2022/08/17 03:12:56;;;;;;;4.03;3.60;;;27.40;40.60;;;;;;5128205;27;45301;-70
2022/08/17 03:15:25;;;;;;;5.00;3.88;;;27.40;40.70;;;;;;5128365;27;45434;-70
2022/08/17 03:17:51;;;;;;;3.25;3.05;;;27.40;40.60;;;;;;5128489;27;45343;-70
2022/08/17 03:20:18;;;;;;;4.00;3.70;;;27.40;40.60;;;;;;5128140;27;46721;-70
2022/08/17 03:22:49;;;;;;;3.90;3.60;;;27.40;40.60;;;;;;5128218;27;45195;-69
2022/08/17 03:25:17;;;;;;;4.00;3.70;;;27.40;40.70;;;;;;5128235;27;45306;-70
2022/08/17 03:27:43;;;;;;;3.70;3.33;;;27.40;40.80;;;;;;5128366;27;45328;-70
2022/08/17 03:30:12;;;;;;;3.85;3.50;;;27.40;41.00;;;;;;5127835;27;46397;-70
2022/08/17 03:32:39;;;;;;;4.00;3.53;;;27.40;41.00;;;;;;5127794;27;45290;-70
2022/08/17 03:35:06;;;;;;;4.38;3.03;;;27.40;41.00;;;;;;5128075;27;45312;-69
2022/08/17 03:37:33;;;;;;;3.45;3.25;;;27.40;41.00;;;;;;5127789;27;45359;-71
2022/08/17 03:40:01;;;;;;;3.72;3.42;;;27.40;40.90;;;;;;5127664;27;46718;-70
2022/08/17 03:42:28;;;;;;;4.47;3.40;;;27.40;40.90;;;;;;5127931;27;45226;-70
2022/08/17 03:44:55;;;;;;;3.50;3.30;;;27.30;40.80;;;;;;5127953;27;45325;-70
2022/08/17 03:58:21;;;;;;;3.65;3.35;;;27.30;41.60;;;;;;5107565;27;45316;-70
2022/08/17 04:00:48;;;;;;;3.28;3.00;;;27.30;41.00;;;;;;5106877;27;46732;-70
2022/08/17 04:03:15;;;;;;;3.45;3.25;;;27.30;40.80;;;;;;5107150;27;45263;-70
2022/08/17 04:05:41;;;;;;;3.47;3.17;;;27.30;40.80;;;;;;5106356;27;45144;-70
2022/08/17 04:08:08;;;;;;;3.63;3.33;;;27.30;41.10;;;;;;5107048;27;45378;-70
2022/08/17 04:10:36;;;;;;;3.60;3.30;;;27.30;40.90;;;;;;5106824;27;45367;-70
2022/08/17 04:13:03;;;;;;;4.47;3.58;;;27.30;40.80;;;;;;5107201;27;45380;-70
2022/08/17 04:15:32;;;;;;;3.17;2.97;;;27.20;41.60;;;;;;5107151;27;45188;-70
2022/08/17 04:17:58;;;;;;;3.72;3.38;;;27.20;41.30;;;;;;5107160;27;45457;-70
2022/08/17 04:20:26;;;;;;;3.78;3.20;;;27.20;41.30;;;;;;5106597;27;46303;-70
2022/08/17 04:22:57;;;;;;;4.28;3.28;;;27.20;41.50;;;;;;5106566;27;45350;-70
2022/08/17 04:25:26;;;;;;;3.88;3.20;;;27.20;41.20;;;;;;5106860;27;45294;-71
2022/08/17 04:27:54;;;;;;;3.80;3.10;;;27.20;41.00;;;;;;5106950;27;45291;-70
2022/08/17 04:30:21;;;;;;;3.45;3.15;;;27.20;41.30;;;;;;5116349;27;47286;-70
2022/08/17 04:32:53;;;;;;;4.05;3.28;;;27.20;41.50;;;;;;5127209;27;45199;-70
2022/08/17 04:35:21;;;;;;;3.70;3.40;;;27.10;41.30;;;;;;5127490;27;45151;-70
2022/08/17 04:37:47;;;;;;;3.45;3.10;;;27.10;41.40;;;;;;5127295;27;45417;-70
2022/08/17 04:43:04;;;;;;;4.20;3.08;;;27.10;41.60;;;;;;5124557;27;45202;-70
2022/08/17 04:45:31;;;;;;;3.22;2.92;;;27.10;41.70;;;;;;5127460;27;45098;-70
2022/08/17 04:47:57;;;;;;;3.50;3.20;;;27.00;41.60;;;;;;5127429;27;45118;-70
2022/08/17 04:50:24;;;;;;;4.78;2.92;;;27.00;41.60;;;;;;5126964;27;46615;-70
2022/08/17 04:52:51;;;;;;;3.47;3.17;;;27.00;41.60;;;;;;5110599;27;45260;-70
2022/08/17 04:55:18;;;;;;;3.17;2.97;;;27.00;41.60;;;;;;5106359;27;45359;-70
2022/08/17 04:57:45;;;;;;;3.47;3.00;;;27.00;41.60;;;;;;5106435;27;45128;-70
2022/08/17 05:00:14;;;;;;;3.55;3.25;;;27.00;41.70;;;;;;5106033;27;46421;-70
2022/08/17 05:02:45;;;;;;;3.55;3.17;;;27.00;41.70;;;;;;5105965;27;45244;-70
2022/08/17 05:05:12;;;;;;;3.60;3.30;;;27.00;41.80;;;;;;5106302;27;45264;-70
2022/08/17 05:07:39;;;;;;;3.45;3.08;;;27.00;42.40;;;;;;5106379;27;45159;-71
2022/08/17 05:10:07;;;;;;;4.85;3.58;;;27.00;42.90;;;;;;5106040;27;45233;-71
2022/08/17 05:12:33;;;;;;;3.25;2.95;;;27.00;43.20;;;;;;5106126;27;45276;-71
2022/08/17 05:15:00;;;;;;;3.78;3.20;;;27.00;43.70;;;;;;5106293;27;45149;-71
2022/08/17 05:17:28;;;;;;;3.35;3.00;;;27.00;43.60;;;;;;5108194;27;45444;-71
2022/08/17 05:19:55;;;;;;;3.30;2.95;;;27.00;43.70;;;;;;5109378;27;45422;-71
2022/08/17 05:22:22;;;;;;;4.15;3.25;;;27.00;44.40;;;;;;5109464;27;45313;-70
2022/08/17 05:24:49;;;;;;;3.50;3.20;;;27.00;43.70;;;;;;5109646;27;45256;-70
2022/08/17 05:27:15;;;;;;;3.50;3.20;;;27.00;44.30;;;;;;5109740;27;45125;-71
2022/08/17 05:29:42;;;;;;;3.00;2.80;;;27.00;44.00;;;;;;5109178;27;46369;-71
2022/08/17 05:32:09;;;;;;;3.20;3.00;;;26.90;43.90;;;;;;5109323;27;45109;-71
2022/08/17 05:34:38;;;;;;;4.38;3.20;;;26.90;44.60;;;;;;5106779;27;45261;-70
2022/08/17 05:37:05;;;;;;;4.20;3.08;;;26.90;45.00;;;;;;5109220;27;45353;-71
2022/08/17 05:39:31;;;;;;;3.28;2.97;;;26.90;45.50;;;;;;5109103;27;46407;-71
2022/08/17 05:42:01;;;;;;;3.58;3.17;;;26.90;45.30;;;;;;5109443;27;45161;-71
2022/08/17 05:44:27;;;;;;;4.70;3.40;;;26.90;45.90;;;;;;5109278;27;45309;-71
2022/08/17 05:46:54;;;;;;;4.13;2.95;;;26.90;45.80;;;;;;5109404;27;45259;-71
2022/08/17 05:49:24;;;;;;;2.97;2.53;;;26.80;45.90;;;;;;5108893;27;46695;-71
2022/08/17 05:52:22;;;;;;;4.20;3.20;;;26.80;46.00;;;;;;5117004;27;45310;-71
2022/08/17 05:54:56;;;;;;;3.28;2.88;;;26.80;46.40;;;;;;5128720;27;45294;-71
2022/08/17 05:57:46;;;;;;;3.17;2.88;;;26.80;46.40;;;;;;5130040;27;45290;-72
2022/08/17 06:00:15;;;;;;;4.45;3.53;;;26.80;46.60;;;;;;5129523;27;46379;-70
2022/08/17 06:02:55;;;;;;;3.35;3.13;;;26.80;47.60;;;;;;5129646;27;45407;-72
2022/08/17 06:05:43;;;;;;;3.13;2.92;;;26.80;46.90;;;;;;5129844;27;45149;-71
2022/08/17 06:08:16;;;;;;;3.53;3.20;;;26.80;47.60;;;;;;5129841;27;45355;-71
2022/08/17 06:10:45;;;;;;;3.33;3.03;;;26.90;47.90;;;;;;5129443;27;45242;-71
2022/08/17 06:13:17;;;;;;;3.47;3.17;;;26.90;47.30;;;;;;5129544;27;45326;-71
2022/08/17 06:15:52;;;;;;;3.45;3.15;;;26.90;47.60;;;;;;5129668;27;45178;-71
2022/08/17 06:18:19;;;;;;;3.50;3.20;;;26.90;47.50;;;;;;5130012;27;45256;-71
2022/08/17 06:20:48;;;;;;;3.40;3.17;;;26.90;47.70;;;;;;5129299;27;45374;-71
2022/08/17 06:23:23;;;;;;;3.60;3.30;;;26.90;47.70;;;;;;5129303;27;45275;-71
2022/08/17 06:25:52;;;;;;;3.67;3.30;;;26.90;47.90;;;;;;5129639;27;45334;-72
2022/08/17 06:28:23;;;;;;;3.60;3.30;;;26.90;48.10;;;;;;5128682;27;45368;-71
2022/08/17 06:30:51;;;;;;;3.28;2.97;;;26.90;48.20;;;;;;5115073;27;46922;-72
2022/08/17 06:33:20;;;;;;;3.40;3.10;;;26.90;47.80;;;;;;5108554;27;45207;-71
2022/08/17 06:35:52;;;;;;;3.67;3.38;;;26.90;47.90;;;;;;5105923;27;45309;-71
2022/08/17 06:38:22;;;;;;;3.58;3.28;;;26.90;48.00;;;;;;5108791;27;45350;-71
2022/08/17 06:40:57;;;;;;;3.67;3.35;;;26.90;48.10;;;;;;5108380;27;45547;-71
2022/08/17 06:43:31;;;;;;;3.75;2.90;;;26.80;48.10;;;;;;5108349;27;45398;-71
2022/08/17 06:46:02;;;;;;;3.90;3.47;;;26.80;47.90;;;;;;5108363;27;45306;-71
2022/08/17 06:48:33;;;;;;;5.88;3.95;;;26.80;49.50;;;;;;5108357;27;45364;-71
2022/08/17 06:51:02;;;;;;;4.35;3.50;;;26.70;49.90;;;;;;5108460;27;46627;-70
2022/08/17 06:53:32;;;;;;;4.15;3.38;;;26.70;50.10;;;;;;5128792;27;45141;-71
2022/08/17 06:56:01;;;;;;;4.07;3.50;;;26.60;50.50;;;;;;5128869;27;45271;-71
2022/08/17 06:58:30;;;;;;;4.85;3.50;;;26.60;50.40;;;;;;5128764;27;45403;-70
2022/08/17 07:00:59;;;;;;;3.63;3.33;;;26.50;50.70;;;;;;5128396;27;46423;-71
2022/08/17 07:03:29;;;;;;;3.35;3.15;;;26.50;51.30;;;;;;5128699;27;45242;-71
2022/08/17 07:05:58;;;;;;;3.97;3.67;;;26.50;51.10;;;;;;5128632;27;45283;-71
2022/08/17 07:08:32;;;;;;;3.83;3.53;;;26.50;51.00;;;;;;5128791;27;45458;-71
2022/08/17 07:11:03;;;;;;;4.03;3.72;;;26.40;51.10;;;;;;5128487;27;46491;-71
2022/08/17 07:13:34;;;;;;;3.75;3.45;;;26.40;51.60;;;;;;5128323;27;45198;-71
2022/08/17 07:16:10;;;;;;;5.88;4.03;;;26.40;51.70;;;;;;5128868;27;45299;-70
2022/08/17 07:18:37;;;;;;;4.03;3.70;;;26.40;52.20;;;;;;5128700;27;45178;-70
2022/08/17 07:21:08;;;;;;;4.35;3.95;;;26.40;52.00;;;;;;5128208;27;46673;-71
2022/08/17 07:23:51;;;;;;;3.55;3.25;;;26.40;52.40;;;;;;5128376;27;45244;-71
2022/08/17 07:26:22;;;;;;;4.72;3.55;;;26.40;52.20;;;;;;5128398;27;45244;-71
2022/08/17 07:28:49;;;;;;;4.07;3.67;;;26.40;52.20;;;;;;5128436;27;45175;-71
2022/08/17 07:31:16;;;;;;;5.22;3.80;;;26.40;52.10;;;;;;5110158;27;46597;-70
2022/08/17 07:34:01;;;;;;;4.63;4.20;;;26.40;52.40;;;;;;5107480;27;45302;-70
2022/08/17 07:36:32;;;;;;;3.70;3.40;;;26.40;52.90;;;;;;5107361;27;45232;-71
2022/08/17 07:38:59;;;;;;;3.78;3.22;;;26.40;53.40;;;;;;5107815;27;45497;-70
2022/08/17 07:41:27;;;;;;;3.97;3.42;;;26.40;54.10;;;;;;5107191;27;45320;-71
2022/08/17 07:43:54;;;;;;;4.22;3.83;;;26.40;54.70;;;;;;5107252;27;45209;-70
2022/08/17 07:49:24;;;;;;;5.40;3.90;;;26.30;55.30;;;;;;5107756;27;45238;-71
2022/08/17 07:51:59;;;;;;;5.18;3.92;;;26.30;55.50;;;;;;5114767;27;46378;-70
2022/08/17 07:54:29;;;;;;;4.03;3.60;;;26.30;55.40;;;;;;5127869;27;45374;-70
2022/08/17 07:56:59;;;;;;;6.10;3.88;;;26.30;55.80;;;;;;5127979;27;45256;-71
2022/08/17 07:59:29;;;;;;;4.85;3.80;;;26.30;55.80;;;;;;5127938;27;45220;-71
2022/08/17 08:02:04;;;;;;;5.13;3.90;;;26.30;55.40;;;;;;5127741;27;46900;-70
2022/08/17 08:04:35;;;;;;;4.38;3.33;;;26.30;55.90;;;;;;5127731;27;45293;-71
2022/08/17 08:07:04;;;;;;;3.67;3.38;;;26.30;55.60;;;;;;5127803;27;45254;-71
2022/08/17 08:09:40;;;;;;;3.95;3.47;;;26.30;55.10;;;;;;5127863;27;45670;-70
2022/08/17 08:12:33;;;;;;;4.47;3.42;;;26.30;55.30;;;;;;5127427;27;45470;-70
2022/08/17 08:15:01;;;;;;;5.30;3.42;;;26.30;55.80;;;;;;5117126;27;45197;-70
2022/08/17 08:17:34;;;;;;;4.80;3.72;;;26.30;55.50;;;;;;5127716;27;45354;-71
2022/08/17 08:20:01;;;;;;;5.05;3.65;;;26.30;55.70;;;;;;5128111;27;45532;-70
2022/08/17 08:22:34;;;;;;;3.45;3.17;;;26.30;55.80;;;;;;5127400;27;45450;-71
2022/08/17 08:25:08;;;;;;;3.35;3.05;;;26.30;55.60;;;;;;5127570;27;45252;-71
2022/08/17 08:27:43;;;;;;;3.95;3.65;;;26.40;55.50;;;;;;5127604;27;45116;-71
2022/08/17 08:30:12;;;;;;;3.85;3.53;;;26.40;55.40;;;;;;5118978;27;45239;-70
2022/08/17 08:33:04;;;;;;;5.03;3.75;;;26.40;55.10;;;;;;5106376;27;45525;-70
2022/08/17 08:35:33;;;;;;;5.82;3.95;;;26.30;55.60;;;;;;5104950;27;45271;-70
2022/08/17 08:38:10;;;;;;;5.50;4.03;;;26.40;56.00;;;;;;5106033;27;45375;-70
2022/08/17 08:40:47;;;;;;;7.28;3.88;;;26.30;56.50;;;;;;5106599;27;45290;-70
2022/08/17 08:43:21;;;;;;;4.65;3.83;;;26.40;56.00;;;;;;5106126;27;46618;-70
2022/08/17 08:45:55;;;;;;;6.07;3.78;;;26.40;55.70;;;;;;5106168;27;45244;-70
2022/08/17 08:48:33;;;;;;;3.72;3.35;;;26.40;55.50;;;;;;5106140;27;45337;-71
2022/08/17 08:51:04;;;;;;;4.60;3.05;;;26.40;55.50;;;;;;5106700;27;45450;-70
2022/08/17 08:53:33;;;;;;;3.67;3.22;;;26.40;55.10;;;;;;5130243;27;46794;-70
2022/08/17 08:56:03;;;;;;;4.05;3.65;;;26.30;55.00;;;;;;5130443;27;45220;-70
2022/08/17 08:58:34;;;;;;;4.97;3.00;;;26.30;55.00;;;;;;5130764;27;45351;-70
2022/08/17 09:01:01;;;;;;;3.95;3.13;;;26.30;55.10;;;;;;5130847;27;45419;-70
2022/08/17 09:03:49;;;;;;;4.07;3.47;;;26.30;55.30;;;;;;5130413;27;47517;-70
2022/08/17 09:06:25;;;;;;;4.25;3.45;;;26.30;55.10;;;;;;5130433;27;45278;-70
2022/08/17 09:08:59;;;;;;;6.20;3.40;;;26.40;55.30;;;;;;5130465;27;45275;-70
2022/08/17 09:11:30;;;;;;;4.10;3.65;;;26.30;55.70;;;;;;5130652;27;45446;-70
2022/08/17 09:14:04;;;;;;;4.32;3.67;;;26.40;55.80;;;;;;5130495;27;47820;-70
2022/08/17 09:16:34;;;;;;;5.80;4.03;;;26.40;56.40;;;;;;5130396;27;45130;-70
2022/08/17 09:19:04;;;;;;;4.55;4.00;;;26.40;56.20;;;;;;5130393;27;45256;-70
2022/08/17 09:21:39;;;;;;;4.68;3.25;;;26.40;56.00;;;;;;5130503;27;45445;-70
2022/08/17 09:24:08;;;;;;;5.45;3.70;;;26.40;56.00;;;;;;5129997;27;45855;-70
2022/08/17 09:26:38;;;;;;;5.45;3.90;;;26.40;56.20;;;;;;5130086;27;45282;-71
2022/08/17 09:29:08;;;;;;;5.45;4.07;;;26.40;56.20;;;;;;5130145;27;45270;-70
2022/08/17 09:31:38;;;;;;;4.32;3.80;;;26.40;56.20;;;;;;5109690;27;45257;-71
2022/08/17 09:34:08;;;;;;;4.03;3.65;;;26.40;55.90;;;;;;5109192;27;45507;-70
2022/08/17 09:36:39;;;;;;;4.03;3.50;;;26.40;56.30;;;;;;5108752;27;45279;-70
2022/08/17 09:39:07;;;;;;;3.80;3.50;;;26.40;56.30;;;;;;5109233;27;45249;-70
2022/08/17 09:41:37;;;;;;;5.10;3.35;;;26.40;55.70;;;;;;5109428;27;45319;-70
2022/08/17 09:44:12;;;;;;;4.47;4.07;;;26.40;55.50;;;;;;5109176;27;45414;-70
2022/08/17 09:46:40;;;;;;;3.90;3.50;;;26.40;55.70;;;;;;5109113;27;45184;-71
2022/08/17 09:49:10;;;;;;;5.07;4.18;;;26.40;55.50;;;;;;5109434;27;45257;-70
2022/08/17 09:51:39;;;;;;;4.70;3.60;;;26.40;56.30;;;;;;5114714;27;45334;-69
2022/08/17 09:54:19;;;;;;;3.50;3.20;;;26.40;55.40;;;;;;5129523;27;46661;-70
2022/08/17 09:56:51;;;;;;;4.30;3.78;;;26.40;54.90;;;;;;5129406;27;45319;-69
2022/08/17 09:59:31;;;;;;;5.65;4.03;;;26.40;55.40;;;;;;5129594;27;45148;-69
2022/08/17 10:02:01;;;;;;;5.05;4.15;;;26.40;56.90;;;;;;5129628;27;45194;-69
2022/08/17 10:04:36;;;;;;;4.63;3.78;;;26.40;57.20;;;;;;5127760;27;46380;-69
2022/08/17 10:07:06;;;;;;;6.97;4.78;;;26.40;56.10;;;;;;5128152;27;45242;-69
2022/08/17 10:09:51;;;;;;;6.38;4.80;;;26.40;58.10;;;;;;5129336;27;45153;-70
2022/08/17 10:12:25;;;;;;;6.80;4.80;;;26.40;57.70;;;;;;5129497;27;45173;-70
2022/08/17 10:15:01;;;;;;;5.00;4.40;;;26.40;57.90;;;;;;5129029;27;45534;-71
2022/08/17 10:17:30;;;;;;;6.03;4.60;;;26.40;57.90;;;;;;5129200;27;45172;-70
2022/08/17 10:20:00;;;;;;;5.30;4.80;;;26.40;58.50;;;;;;5129311;27;45175;-71
2022/08/17 10:27:58;;;;;;;4.88;4.28;;;26.40;58.50;;;;;;5129515;27;45317;-71
2022/08/17 10:30:28;;;;;;;6.28;4.43;;;26.40;58.70;;;;;;5118729;27;45238;-71
2022/08/17 10:32:58;;;;;;;5.32;4.13;;;26.40;58.40;;;;;;5108886;27;45382;-71
2022/08/17 10:35:33;;;;;;;5.72;4.00;;;26.40;58.40;;;;;;5108357;27;46317;-71
2022/08/17 10:38:27;;;;;;;4.43;4.03;;;26.40;58.10;;;;;;5108081;27;45197;-71
2022/08/17 10:40:56;;;;;;;5.32;4.03;;;26.40;58.10;;;;;;5094221;27;45223;-70
2022/08/17 10:43:43;;;;;;;5.15;3.88;;;26.40;58.10;;;;;;5108511;27;45391;-71
2022/08/17 10:46:15;;;;;;;4.43;3.97;;;26.40;58.20;;;;;;5108420;27;46632;-71
2022/08/17 10:48:42;;;;;;;4.18;3.80;;;26.40;57.80;;;;;;5108407;27;45154;-72
2022/08/17 10:51:11;;;;;;;5.35;4.18;;;26.50;57.40;;;;;;5109886;27;45342;-72
2022/08/17 10:53:54;;;;;;;3.65;3.33;;;26.50;57.50;;;;;;5129207;27;45297;-71
2022/08/17 10:56:37;;;;;;;4.20;3.45;;;26.50;57.30;;;;;;5126052;27;45345;-71
2022/08/17 10:59:04;;;;;;;4.75;3.63;;;26.50;57.30;;;;;;5128674;27;45323;-71
2022/08/17 11:02:03;;;;;;;4.28;3.92;;;26.50;57.40;;;;;;5129189;27;45314;-71
2022/08/17 11:04:42;;;;;;;3.90;3.50;;;26.50;57.80;;;;;;5125958;27;45231;-71
2022/08/17 11:07:12;;;;;;;4.70;4.22;;;26.50;56.80;;;;;;5125636;27;45192;-71
2022/08/17 11:09:51;;;;;;;5.22;3.60;;;26.50;56.90;;;;;;5128664;27;45190;-71
2022/08/17 11:12:25;;;;;;;4.25;3.63;;;26.50;57.00;;;;;;5128580;27;45140;-71
2022/08/17 11:15:01;;;;;;;5.10;3.65;;;26.60;56.80;;;;;;5128149;27;45395;-71
2022/08/17 11:18:00;;;;;;;4.20;3.70;;;26.60;56.40;;;;;;5128456;27;45498;-70
2022/08/17 11:20:59;;;;;;;4.93;3.42;;;26.60;56.40;;;;;;5128204;27;45345;-71
2022/08/17 11:23:44;;;;;;;3.83;3.42;;;26.60;56.10;;;;;;5122348;27;45158;-71
2022/08/17 11:26:24;;;;;;;3.97;3.67;;;26.60;55.80;;;;;;5126410;27;45215;-71
2022/08/17 11:28:53;;;;;;;5.70;3.47;;;26.60;56.20;;;;;;5128260;27;47326;-71
2022/08/17 11:31:29;;;;;;;5.63;3.50;;;26.70;55.80;;;;;;5108484;27;45255;-71
2022/08/17 11:34:03;;;;;;;3.70;3.40;;;26.60;55.30;;;;;;5107906;27;45164;-70
2022/08/17 11:36:51;;;;;;;3.80;3.35;;;26.70;55.00;;;;;;5107332;27;45169;-71
2022/08/17 11:39:28;;;;;;;11.35;4.30;;;26.70;54.50;;;;;;5107254;27;45465;-71
2022/08/17 11:41:57;;;;;;;3.38;3.08;;;26.70;53.90;;;;;;5107220;27;45337;-71
2022/08/17 11:44:36;;;;;;;3.72;3.40;;;26.70;53.40;;;;;;5107234;27;45328;-71
2022/08/17 11:53:50;;;;;;;4.30;3.50;;;26.90;52.80;;;;;;5122425;27;45232;-71
2022/08/17 11:56:36;;;;;;;3.58;3.08;;;26.90;52.50;;;;;;5128061;27;45133;-71
2022/08/17 11:59:03;;;;;;;3.60;3.30;;;27.00;52.50;;;;;;5127752;27;45614;-70
2022/08/17 12:01:54;;;;;;;4.78;3.67;;;27.10;52.10;;;;;;5127575;27;45344;-71
2022/08/17 12:04:26;;;;;;;3.78;3.05;;;27.20;51.80;;;;;;5127528;27;45244;-71
2022/08/17 12:06:56;;;;;;;3.10;2.90;;;27.30;51.50;;;;;;5127659;27;45309;-70
2022/08/17 12:09:25;;;;;;;3.33;3.13;;;27.30;51.30;;;;;;5127838;27;45183;-70
2022/08/17 12:11:54;;;;;;;3.08;2.80;;;27.30;51.20;;;;;;5127406;27;45462;-71
2022/08/17 12:14:25;;;;;;;3.28;2.97;;;27.40;50.90;;;;;;5127662;27;45182;-71
2022/08/17 12:17:03;;;;;;;3.50;3.17;;;27.50;50.80;;;;;;5127659;27;45353;-70
2022/08/17 12:19:32;;;;;;;3.20;2.75;;;27.50;50.60;;;;;;5127700;27;45238;-71
2022/08/17 12:22:04;;;;;;;3.45;3.15;;;27.60;50.30;;;;;;5127467;27;46675;-70
2022/08/17 12:24:38;;;;;;;2.83;2.63;;;27.60;50.40;;;;;;5127261;27;45203;-70
2022/08/17 12:27:06;;;;;;;3.58;3.05;;;27.60;50.40;;;;;;5128637;27;45253;-71
2022/08/17 12:29:32;;;;;;;3.22;2.67;;;27.70;50.10;;;;;;5128242;27;45447;-70
2022/08/17 12:32:00;;;;;;;2.92;2.70;;;27.70;49.50;;;;;;5110329;27;47361;-70
2022/08/17 12:34:29;;;;;;;3.40;3.10;;;27.80;49.60;;;;;;5132049;27;45304;-71
2022/08/17 12:36:58;;;;;;;4.72;3.00;;;27.90;49.60;;;;;;5150981;27;45192;-71
2022/08/17 12:39:27;;;;;;;3.47;3.17;;;27.90;49.10;;;;;;5148833;27;45416;-70
2022/08/17 12:41:56;;;;;;;3.03;2.72;;;28.00;49.40;;;;;;5150667;27;46399;-71
2022/08/17 12:44:24;;;;;;;3.95;2.92;;;28.00;48.20;;;;;;5151116;27;45284;-71
2022/08/17 12:46:53;;;;;;;3.78;3.10;;;28.10;48.60;;;;;;5151358;27;45251;-70
2022/08/17 12:49:31;;;;;;;3.30;3.00;;;28.10;47.70;;;;;;5151645;27;45165;-70
2022/08/17 12:52:05;;;;;;;4.35;3.10;;;28.20;48.20;;;;;;5150801;27;46716;-70
2022/08/17 12:54:50;;;;;;;3.15;2.83;;;28.20;47.00;;;;;;5151560;27;45253;-71
2022/08/17 12:57:18;;;;;;;3.22;2.92;;;28.10;46.50;;;;;;5151455;27;45125;-71
2022/08/17 12:59:49;;;;;;;3.53;2.50;;;28.10;46.90;;;;;;5151408;27;45455;-70
2022/08/17 13:02:21;;;;;;;2.75;2.55;;;28.20;46.60;;;;;;5151093;27;46495;-71
2022/08/17 13:04:48;;;;;;;3.00;2.80;;;28.20;46.40;;;;;;5148363;27;45413;-71
2022/08/17 13:07:26;;;;;;;2.80;2.60;;;28.30;46.40;;;;;;5151176;27;45244;-70
2022/08/17 13:09:54;;;;;;;5.65;5.15;;;28.30;46.70;;;;;;5151191;27;45584;-70
2022/08/17 13:12:27;;;;;;;3.53;3.22;;;28.40;45.60;;;;;;5138672;27;45756;-70
2022/08/17 13:14:53;;;;;;;3.58;3.28;;;28.30;45.10;;;;;;5129989;27;45151;-70
2022/08/17 13:17:26;;;;;;;3.28;2.97;;;28.30;45.00;;;;;;5129931;27;45423;-70
2022/08/17 13:19:53;;;;;;;3.13;2.92;;;28.30;45.90;;;;;;5142016;27;45252;-71
2022/08/17 13:22:22;;;;;;;4.10;2.90;;;28.30;45.50;;;;;;5149449;27;46403;-70
2022/08/17 13:24:51;;;;;;;2.83;2.63;;;28.30;45.30;;;;;;5150686;27;45535;-70
2022/08/17 13:27:20;;;;;;;2.70;2.50;;;28.40;45.90;;;;;;5150671;27;45261;-69
2022/08/17 13:29:49;;;;;;;2.83;2.63;;;28.40;45.20;;;;;;5155655;27;45429;-70
2022/08/17 13:32:17;;;;;;;3.00;2.70;;;28.40;45.90;;;;;;5151075;27;46399;-70
2022/08/17 13:34:45;;;;;;;4.68;2.35;;;28.40;45.50;;;;;;5150169;27;45263;-70